Time;durP1;ratioP1;P1;durP2;ratioP2;P2;SDS_P1;SDS_P2;PMS_P1;PMS_P2;Temp;Humidity;BMP_temperature;BMP_pressure;BME280_temperature;BME280_humidity;BME280_pressure;Samples;Min_cycle;Max_cycle;Signal;HPM_P1;HPM_P2
2023/04/01 00:02:21;;;;;;;12.77;1.58;;;23.30;36.30;;;;;;5043207;28;20068;-68
2023/04/01 00:04:48;;;;;;;28.10;3.08;;;23.40;36.70;;;;;;5040786;28;20085;-65
2023/04/01 00:07:14;;;;;;;8.52;1.73;;;23.50;36.50;;;;;;5051032;28;20091;-66
2023/04/01 00:09:41;;;;;;;8.40;1.98;;;23.40;36.40;;;;;;5047694;28;20081;-64
2023/04/01 00:12:07;;;;;;;9.10;1.20;;;23.50;36.90;;;;;;5047038;28;20155;-68
2023/04/01 00:14:34;;;;;;;4.97;1.05;;;23.30;36.60;;;;;;5048756;28;20688;-66
2023/04/01 00:17:01;;;;;;;5.95;1.38;;;23.30;36.60;;;;;;5048227;28;20127;-66
2023/04/01 00:19:28;;;;;;;12.25;1.33;;;23.20;36.80;;;;;;5056057;28;20534;-66
2023/04/01 00:21:55;;;;;;;7.15;1.50;;;23.10;36.80;;;;;;5054264;28;20131;-65
2023/04/01 00:24:21;;;;;;;5.82;1.90;;;22.90;37.40;;;;;;5050808;28;20087;-63
2023/04/01 00:26:48;;;;;;;14.77;1.63;;;23.00;37.00;;;;;;5049880;28;20075;-64
2023/04/01 00:29:15;;;;;;;6.75;1.20;;;23.20;37.00;;;;;;5051129;28;20073;-66
2023/04/01 00:31:41;;;;;;;12.63;1.50;;;22.90;36.60;;;;;;5056087;28;20566;-65
2023/04/01 00:34:08;;;;;;;6.97;2.05;;;23.00;37.10;;;;;;5056574;28;20119;-65
2023/04/01 00:36:34;;;;;;;5.90;1.27;;;22.90;37.30;;;;;;5055055;28;20123;-65
2023/04/01 00:39:01;;;;;;;9.35;1.35;;;22.90;37.30;;;;;;5052466;28;20079;-65
2023/04/01 00:41:27;;;;;;;7.78;1.40;;;22.80;37.50;;;;;;5056108;28;21272;-64
2023/04/01 00:44:19;;;;;;;4.97;1.38;;;22.50;37.30;;;;;;5057393;28;20099;-64
2023/04/01 00:46:46;;;;;;;8.05;1.45;;;22.30;37.70;;;;;;5055408;28;20076;-64
2023/04/01 00:49:13;;;;;;;9.60;1.48;;;22.40;38.00;;;;;;5052171;28;20526;-64
2023/04/01 00:51:42;;;;;;;4.88;1.77;;;22.20;38.20;;;;;;5049896;28;20552;-64
2023/04/01 00:54:10;;;;;;;6.03;1.75;;;22.20;38.80;;;;;;5051078;28;20837;-62
2023/04/01 00:57:00;;;;;;;7.70;1.85;;;22.20;38.50;;;;;;5053479;28;20116;-65
2023/04/01 00:59:37;;;;;;;7.03;1.55;;;22.10;38.50;;;;;;5049262;28;20158;-63
2023/04/01 01:02:07;;;;;;;10.05;1.88;;;22.20;38.80;;;;;;5048574;28;20155;-64
2023/04/01 01:04:35;;;;;;;11.65;1.50;;;22.20;38.40;;;;;;5048431;28;21017;-65
2023/04/01 01:07:36;;;;;;;10.45;1.38;;;22.30;38.60;;;;;;5044651;28;20080;-64
2023/04/01 01:10:19;;;;;;;8.10;1.55;;;22.20;37.80;;;;;;5049900;28;20079;-64
2023/04/01 01:12:49;;;;;;;4.88;1.40;;;22.00;38.10;;;;;;5041572;28;20088;-63
2023/04/01 01:15:19;;;;;;;6.50;1.58;;;22.00;37.80;;;;;;5050532;28;20123;-63
2023/04/01 01:18:19;;;;;;;8.05;1.20;;;22.00;37.90;;;;;;5048858;28;20107;-66
2023/04/01 01:21:24;;;;;;;9.32;1.58;;;22.00;38.10;;;;;;5043210;28;20081;-66
2023/04/01 01:23:53;;;;;;;9.30;1.83;;;21.90;38.10;;;;;;5047895;28;20077;-64
2023/04/01 01:26:44;;;;;;;3.70;1.67;;;21.80;38.20;;;;;;5047114;28;20143;-65
2023/04/01 01:29:35;;;;;;;7.35;1.55;;;21.60;38.70;;;;;;5045893;28;20541;-65
2023/04/01 01:32:39;;;;;;;10.90;1.73;;;21.50;38.50;;;;;;5049291;28;20073;-65
2023/04/01 01:35:21;;;;;;;14.73;2.90;;;21.50;38.60;;;;;;5053681;28;20075;-65
2023/04/01 01:37:52;;;;;;;20.13;2.45;;;21.50;38.80;;;;;;5055085;28;20151;-64
2023/04/01 01:40:21;;;;;;;5.50;2.00;;;21.40;38.50;;;;;;5056298;28;20085;-64
2023/04/01 01:42:51;;;;;;;6.03;1.05;;;21.40;38.60;;;;;;5053957;28;20410;-64
2023/04/01 01:45:22;;;;;;;5.18;1.30;;;21.30;39.20;;;;;;5057762;28;20414;-62
2023/04/01 01:47:50;;;;;;;10.38;1.52;;;21.20;39.10;;;;;;5054455;28;20084;-59
2023/04/01 01:50:19;;;;;;;6.25;1.23;;;21.10;39.40;;;;;;5050080;28;20409;-61
2023/04/01 01:52:46;;;;;;;7.30;1.23;;;21.10;39.80;;;;;;5054743;28;20441;-62
2023/04/01 01:55:25;;;;;;;4.88;1.55;;;21.10;40.10;;;;;;5050459;28;20561;-62
2023/04/01 01:57:52;;;;;;;13.48;1.92;;;21.00;39.90;;;;;;5049058;28;20076;-63
2023/04/01 02:00:19;;;;;;;11.35;1.73;;;20.90;40.50;;;;;;5054782;28;20113;-64
2023/04/01 02:02:48;;;;;;;12.13;1.75;;;20.80;40.80;;;;;;5054687;28;20069;-62
2023/04/01 02:05:24;;;;;;;9.05;1.40;;;20.70;40.90;;;;;;5051293;28;20604;-65
2023/04/01 02:08:00;;;;;;;10.13;2.15;;;20.70;41.10;;;;;;5049953;28;20206;-64
2023/04/01 02:10:31;;;;;;;11.20;1.77;;;20.60;41.30;;;;;;5056323;28;20485;-64
2023/04/01 02:13:01;;;;;;;13.27;2.20;;;20.50;41.70;;;;;;5057171;28;20677;-64
2023/04/01 02:15:31;;;;;;;10.32;2.05;;;20.50;42.00;;;;;;5058974;28;20080;-65
2023/04/01 02:17:58;;;;;;;11.93;2.30;;;20.40;42.10;;;;;;5060552;28;20503;-64
2023/04/01 02:20:26;;;;;;;7.75;2.22;;;20.20;42.40;;;;;;5060513;28;20560;-63
2023/04/01 02:22:57;;;;;;;8.07;2.75;;;20.20;42.60;;;;;;5055375;28;20583;-64
2023/04/01 02:25:35;;;;;;;10.80;3.05;;;20.20;42.30;;;;;;5056715;28;20548;-62
2023/04/01 02:28:05;;;;;;;12.80;2.90;;;20.00;42.50;;;;;;5060052;28;20104;-66
2023/04/01 02:30:34;;;;;;;10.40;3.53;;;19.90;42.50;;;;;;5057903;28;20068;-64
2023/04/01 02:33:02;;;;;;;20.48;4.72;;;19.90;42.80;;;;;;5051112;28;20086;-64
2023/04/01 02:35:29;;;;;;;12.82;4.35;;;19.90;43.00;;;;;;5054683;28;20088;-64
2023/04/01 02:37:56;;;;;;;10.45;4.60;;;19.80;43.00;;;;;;5059122;28;20106;-66
2023/04/01 02:40:23;;;;;;;17.85;5.50;;;19.70;43.30;;;;;;5057756;28;20065;-64
2023/04/01 02:42:49;;;;;;;10.80;4.20;;;19.70;43.50;;;;;;5058981;28;20127;-64
2023/04/01 02:45:16;;;;;;;12.43;3.88;;;19.60;43.50;;;;;;5056263;28;20090;-66
2023/04/01 02:47:42;;;;;;;10.65;3.70;;;19.60;43.50;;;;;;5057914;28;20096;-64
2023/04/01 02:50:09;;;;;;;8.20;3.55;;;19.50;43.20;;;;;;5062898;28;20072;-68
2023/04/01 02:52:36;;;;;;;11.55;3.80;;;19.50;43.60;;;;;;5059905;28;20064;-64
2023/04/01 02:55:04;;;;;;;15.18;3.92;;;19.40;43.80;;;;;;5055076;28;20061;-65
2023/04/01 02:57:30;;;;;;;10.18;4.35;;;19.30;44.30;;;;;;5057780;28;20138;-65
2023/04/01 02:59:57;;;;;;;12.60;4.47;;;19.20;44.80;;;;;;5055375;28;20060;-64
2023/04/01 03:02:24;;;;;;;13.88;3.95;;;19.20;45.00;;;;;;5060403;28;20112;-63
2023/04/01 03:04:50;;;;;;;14.30;3.45;;;19.10;45.20;;;;;;5055959;28;20064;-64
2023/04/01 03:07:16;;;;;;;15.95;3.88;;;19.00;45.40;;;;;;5053514;28;20172;-65
2023/04/01 03:09:43;;;;;;;12.68;3.50;;;18.90;45.90;;;;;;5049970;28;20081;-64
2023/04/01 03:12:10;;;;;;;12.45;3.35;;;18.90;46.20;;;;;;5049254;28;20677;-66
2023/04/01 03:14:36;;;;;;;13.82;2.92;;;18.80;46.50;;;;;;5056530;28;20146;-64
2023/04/01 03:17:02;;;;;;;9.23;2.67;;;18.70;46.60;;;;;;5059969;28;20084;-65
2023/04/01 03:19:29;;;;;;;12.02;2.13;;;18.60;47.00;;;;;;5056649;28;20492;-64
2023/04/01 03:21:56;;;;;;;12.02;2.80;;;18.60;47.30;;;;;;5060365;28;20102;-65
2023/04/01 03:24:22;;;;;;;11.05;3.00;;;18.50;47.60;;;;;;5059552;28;20078;-65
2023/04/01 03:26:49;;;;;;;14.05;2.85;;;18.40;48.10;;;;;;5055216;28;20072;-64
2023/04/01 03:29:15;;;;;;;7.07;2.65;;;18.30;48.20;;;;;;5054752;28;20092;-63
2023/04/01 03:31:42;;;;;;;13.20;2.80;;;18.30;48.30;;;;;;5052282;28;20074;-65
2023/04/01 03:34:09;;;;;;;16.35;3.08;;;18.20;48.70;;;;;;5054316;28;20120;-62
2023/04/01 03:36:35;;;;;;;11.73;3.75;;;18.10;48.80;;;;;;5057085;28;20093;-64
2023/04/01 03:39:03;;;;;;;9.68;3.38;;;18.10;49.20;;;;;;5052092;28;20092;-63
2023/04/01 03:41:30;;;;;;;9.80;4.05;;;18.00;49.80;;;;;;5054765;28;20127;-63
2023/04/01 03:43:57;;;;;;;11.15;4.05;;;18.00;49.90;;;;;;5052087;28;20072;-65
2023/04/01 03:46:23;;;;;;;8.48;3.55;;;17.90;49.90;;;;;;5049664;28;20442;-63
2023/04/01 03:48:50;;;;;;;11.13;3.60;;;17.90;50.30;;;;;;5056053;28;20278;-64
2023/04/01 03:51:16;;;;;;;13.63;3.55;;;17.80;50.50;;;;;;5055808;28;20068;-63
2023/04/01 03:53:43;;;;;;;10.30;3.75;;;17.70;51.90;;;;;;5054341;28;20080;-63
2023/04/01 03:56:10;;;;;;;9.13;3.25;;;17.70;51.50;;;;;;5053128;28;20116;-63
2023/04/01 03:58:37;;;;;;;8.45;3.30;;;17.70;51.30;;;;;;5049546;28;20148;-63
2023/04/01 04:01:04;;;;;;;8.70;3.25;;;17.50;52.20;;;;;;5051179;28;20434;-65
2023/04/01 04:03:31;;;;;;;15.48;3.90;;;17.50;51.80;;;;;;5052632;28;20538;-63
2023/04/01 04:05:57;;;;;;;10.00;3.35;;;17.50;51.80;;;;;;5056520;28;20122;-62
2023/04/01 04:08:24;;;;;;;14.95;3.90;;;17.40;51.60;;;;;;5047446;28;20545;-64
2023/04/01 04:10:55;;;;;;;17.58;4.32;;;17.40;51.80;;;;;;5054730;28;20076;-64
2023/04/01 04:13:22;;;;;;;11.63;4.68;;;17.30;52.00;;;;;;5052937;28;20077;-64
2023/04/01 04:15:48;;;;;;;17.55;3.90;;;17.30;52.20;;;;;;5057252;28;20092;-64
2023/04/01 04:18:15;;;;;;;13.70;3.53;;;17.20;52.60;;;;;;5050285;28;20064;-63
2023/04/01 04:20:48;;;;;;;20.00;3.42;;;17.20;52.70;;;;;;5050242;28;20087;-63
2023/04/01 04:23:14;;;;;;;7.78;2.97;;;17.20;52.90;;;;;;5053740;28;20128;-63
2023/04/01 04:25:41;;;;;;;10.98;2.63;;;17.20;53.30;;;;;;5055520;28;20076;-62
2023/04/01 04:28:07;;;;;;;11.40;3.25;;;17.10;53.50;;;;;;5055557;28;20077;-63
2023/04/01 04:30:34;;;;;;;8.82;2.58;;;17.10;53.60;;;;;;5056100;28;20121;-63
2023/04/01 04:33:01;;;;;;;5.63;2.22;;;17.10;54.20;;;;;;5062647;28;20546;-64
2023/04/01 04:35:27;;;;;;;13.32;2.42;;;17.10;54.40;;;;;;5051947;28;20188;-63
2023/04/01 04:37:54;;;;;;;6.40;2.30;;;17.10;54.40;;;;;;5051990;28;20127;-65
2023/04/01 04:40:20;;;;;;;10.50;2.75;;;17.10;54.60;;;;;;5059515;28;20099;-63
2023/04/01 04:42:47;;;;;;;8.18;2.78;;;17.00;54.80;;;;;;5056607;28;20119;-66
2023/04/01 04:45:13;;;;;;;13.50;4.10;;;16.90;55.10;;;;;;5056796;28;20066;-65
2023/04/01 04:47:40;;;;;;;14.02;4.90;;;16.90;55.10;;;;;;5058078;28;20141;-64
2023/04/01 04:50:07;;;;;;;16.20;5.32;;;16.90;55.20;;;;;;5057511;28;20089;-64
2023/04/01 04:52:34;;;;;;;20.55;5.15;;;16.80;55.40;;;;;;5055460;28;20983;-64
2023/04/01 04:55:00;;;;;;;10.38;4.10;;;16.80;55.20;;;;;;5056750;28;20064;-63
2023/04/01 04:57:27;;;;;;;12.70;3.40;;;16.80;55.30;;;;;;5055039;28;20102;-66
2023/04/01 04:59:54;;;;;;;10.77;3.83;;;16.70;55.50;;;;;;5054603;28;20096;-63
2023/04/01 05:02:21;;;;;;;7.63;3.13;;;16.70;55.70;;;;;;5054399;28;20068;-63
2023/04/01 05:04:47;;;;;;;13.25;3.65;;;16.70;55.80;;;;;;5051510;28;20487;-64
2023/04/01 05:07:14;;;;;;;11.55;2.90;;;16.60;56.30;;;;;;5053131;28;20097;-63
2023/04/01 05:09:40;;;;;;;9.75;2.70;;;16.60;56.20;;;;;;5047417;28;20465;-66
2023/04/01 05:12:07;;;;;;;8.80;2.20;;;16.50;56.90;;;;;;5052425;28;20168;-64
2023/04/01 05:14:33;;;;;;;9.13;1.98;;;16.40;56.60;;;;;;5053997;28;20098;-64
2023/04/01 05:17:00;;;;;;;9.30;2.20;;;16.50;56.70;;;;;;5057075;28;20095;-63
2023/04/01 05:19:26;;;;;;;6.18;2.10;;;16.40;57.10;;;;;;5056143;28;20068;-64
2023/04/01 05:21:53;;;;;;;6.10;2.17;;;16.40;57.20;;;;;;5052275;28;20069;-65
2023/04/01 05:24:19;;;;;;;10.00;2.80;;;16.40;57.30;;;;;;5054556;28;20074;-65
2023/04/01 05:27:04;;;;;;;19.02;3.05;;;16.40;57.40;;;;;;5056059;28;20132;-63
2023/04/01 05:29:49;;;;;;;30.63;11.20;;;16.40;57.70;;;;;;5056285;28;20100;-65
2023/04/01 05:32:16;;;;;;;30.40;12.07;;;16.30;57.50;;;;;;5054554;28;20535;-63
2023/04/01 05:34:42;;;;;;;29.90;13.77;;;16.30;57.70;;;;;;5051116;28;20082;-63
2023/04/01 05:37:09;;;;;;;29.60;10.80;;;16.30;57.80;;;;;;5052236;28;20089;-64
2023/04/01 05:39:39;;;;;;;31.10;11.85;;;16.30;57.90;;;;;;5053204;28;20076;-64
2023/04/01 05:42:08;;;;;;;42.90;13.13;;;16.30;58.10;;;;;;5051293;28;20555;-63
2023/04/01 05:44:36;;;;;;;22.48;5.00;;;16.20;58.00;;;;;;5052441;28;20154;-63
2023/04/01 05:47:04;;;;;;;21.90;6.00;;;16.20;57.90;;;;;;5050221;28;20104;-63
2023/04/01 05:49:31;;;;;;;23.65;6.63;;;16.20;58.10;;;;;;5050067;28;20534;-64
2023/04/01 05:51:57;;;;;;;28.50;6.53;;;16.20;58.00;;;;;;5049262;28;20072;-63
2023/04/01 05:54:24;;;;;;;18.27;5.50;;;16.10;58.10;;;;;;5051890;28;20170;-64
2023/04/01 05:56:52;;;;;;;24.67;6.22;;;16.00;58.40;;;;;;5051788;28;20113;-64
2023/04/01 05:59:19;;;;;;;21.13;5.57;;;16.10;58.50;;;;;;5050389;28;20561;-62
2023/04/01 06:01:45;;;;;;;20.48;5.50;;;16.00;58.40;;;;;;5054780;28;20593;-64
2023/04/01 06:04:16;;;;;;;23.25;5.25;;;15.90;58.40;;;;;;5054815;28;20083;-64
2023/04/01 06:06:44;;;;;;;22.98;5.43;;;15.90;58.70;;;;;;5055421;28;20110;-66
2023/04/01 06:09:15;;;;;;;21.42;5.95;;;15.90;58.90;;;;;;5043930;28;20123;-62
2023/04/01 06:12:14;;;;;;;15.00;5.70;;;15.90;58.60;;;;;;5046105;28;20546;-63
2023/04/01 06:15:09;;;;;;;22.98;5.10;;;15.90;58.50;;;;;;5053038;28;20088;-62
2023/04/01 06:18:09;;;;;;;19.63;5.22;;;16.00;58.50;;;;;;5048130;28;20081;-62
2023/04/01 06:20:44;;;;;;;29.45;6.43;;;16.00;59.70;;;;;;5049279;28;20085;-64
2023/04/01 06:23:48;;;;;;;24.77;6.00;;;15.90;59.50;;;;;;5057190;28;20162;-63
2023/04/01 06:26:22;;;;;;;13.45;4.32;;;15.90;58.40;;;;;;5039848;28;20077;-61
2023/04/01 06:29:09;;;;;;;17.73;4.72;;;15.90;58.50;;;;;;5054417;28;20112;-64
2023/04/01 06:32:16;;;;;;;19.40;3.83;;;16.00;58.20;;;;;;5052403;28;20080;-63
2023/04/01 06:34:48;;;;;;;21.27;3.53;;;16.00;58.20;;;;;;5049138;28;21174;-61
2023/04/01 06:37:27;;;;;;;17.38;4.10;;;16.00;57.80;;;;;;5050667;28;20105;-64
2023/04/01 06:40:19;;;;;;;13.57;3.75;;;16.00;58.10;;;;;;5053231;28;20553;-63
2023/04/01 06:42:48;;;;;;;15.63;3.65;;;16.00;58.30;;;;;;5050787;28;20090;-63
2023/04/01 06:45:40;;;;;;;10.75;4.18;;;16.00;58.40;;;;;;5048317;28;20416;-65
2023/04/01 06:48:33;;;;;;;17.67;4.03;;;15.90;58.30;;;;;;5051707;28;20164;-63
2023/04/01 06:51:09;;;;;;;25.17;3.95;;;15.80;58.50;;;;;;5048643;28;20081;-63
2023/04/01 06:54:13;;;;;;;11.57;3.28;;;15.80;58.50;;;;;;5051640;28;20104;-64
2023/04/01 06:56:46;;;;;;;19.40;3.95;;;15.80;58.90;;;;;;5052909;28;20269;-63
2023/04/01 06:59:20;;;;;;;20.48;4.07;;;15.80;58.80;;;;;;5054161;28;20084;-63
2023/04/01 07:01:52;;;;;;;17.02;3.92;;;15.70;58.30;;;;;;5054405;28;20096;-61
2023/04/01 07:04:51;;;;;;;19.63;7.10;;;15.70;58.70;;;;;;5056555;28;20081;-63
2023/04/01 07:07:41;;;;;;;15.60;7.28;;;15.70;58.80;;;;;;5058045;28;20100;-63
2023/04/01 07:10:17;;;;;;;14.75;4.45;;;15.60;59.90;;;;;;5058358;28;20138;-63
2023/04/01 07:12:49;;;;;;;15.13;4.30;;;15.50;60.30;;;;;;5055483;28;20564;-66
2023/04/01 07:15:43;;;;;;;30.15;4.65;;;15.40;59.60;;;;;;5053095;28;20089;-63
2023/04/01 07:18:25;;;;;;;11.52;3.90;;;15.30;60.00;;;;;;5055258;28;20089;-63
2023/04/01 07:20:53;;;;;;;18.80;3.75;;;15.20;60.90;;;;;;5060633;28;20117;-62
2023/04/01 07:23:31;;;;;;;18.00;3.60;;;15.20;60.20;;;;;;5058066;28;20093;-62
2023/04/01 07:26:18;;;;;;;10.98;3.25;;;15.20;59.70;;;;;;5057999;28;20073;-61
2023/04/01 07:28:45;;;;;;;19.42;3.30;;;15.20;59.90;;;;;;5054903;28;20073;-62
2023/04/01 07:31:30;;;;;;;10.27;2.80;;;15.20;60.10;;;;;;5055935;28;20101;-64
2023/04/01 07:34:11;;;;;;;10.88;3.58;;;15.20;60.90;;;;;;5057387;28;20538;-64
2023/04/01 07:36:56;;;;;;;13.98;3.63;;;15.10;60.30;;;;;;5054864;28;20129;-63
2023/04/01 07:39:45;;;;;;;18.65;5.97;;;15.10;59.80;;;;;;5052561;28;20072;-62
2023/04/01 07:42:56;;;;;;;22.27;9.55;;;15.00;60.10;;;;;;5053454;28;20573;-64
2023/04/01 07:45:26;;;;;;;31.65;10.73;;;15.00;60.10;;;;;;5054827;28;20077;-62
2023/04/01 07:48:04;;;;;;;33.10;10.80;;;15.00;60.10;;;;;;5053954;28;20062;-62
2023/04/01 07:50:51;;;;;;;29.27;11.98;;;15.00;59.90;;;;;;5058524;28;20073;-62
2023/04/01 07:53:46;;;;;;;30.92;10.55;;;14.90;59.90;;;;;;5031402;28;20158;-62
2023/04/01 07:56:30;;;;;;;27.95;9.95;;;15.00;60.30;;;;;;5049975;28;20109;-63
2023/04/01 07:58:56;;;;;;;35.92;8.02;;;14.90;60.30;;;;;;5053295;28;20088;-58
2023/04/01 08:01:58;;;;;;;25.40;6.85;;;14.80;60.10;;;;;;5051415;28;20092;-61
2023/04/01 08:04:56;;;;;;;32.55;7.85;;;14.80;59.90;;;;;;5052811;28;20554;-61
2023/04/01 08:07:47;;;;;;;41.40;8.57;;;14.80;59.50;;;;;;5054543;28;20089;-64
2023/04/01 08:10:26;;;;;;;41.85;9.32;;;14.80;59.20;;;;;;5056295;28;20572;-64
2023/04/01 08:13:40;;;;;;;47.03;11.45;;;14.80;59.20;;;;;;5048506;28;20105;-60
2023/04/01 08:16:48;;;;;;;39.65;12.63;;;14.70;59.70;;;;;;5020603;28;20098;-64
2023/04/01 08:19:37;;;;;;;57.22;14.02;;;14.70;59.30;;;;;;5019347;28;20608;-63
2023/04/01 08:22:23;;;;;;;53.30;15.40;;;14.60;59.10;;;;;;5012735;28;20090;-61
2023/04/01 08:24:51;;;;;;;45.47;14.70;;;14.70;58.40;;;;;;5017783;28;20082;-63
2023/04/01 08:27:41;;;;;;;48.22;14.90;;;14.60;57.90;;;;;;5020311;28;20193;-63
2023/04/01 08:30:25;;;;;;;44.95;13.38;;;14.60;58.20;;;;;;5020985;28;20085;-62
2023/04/01 08:33:15;;;;;;;40.00;13.75;;;14.60;58.10;;;;;;5017278;28;20078;-64
2023/04/01 08:35:59;;;;;;;46.60;12.23;;;14.50;57.90;;;;;;5017964;28;20226;-64
2023/04/01 08:38:33;;;;;;;41.60;11.82;;;14.50;57.80;;;;;;5019573;28;20082;-61
2023/04/01 08:41:36;;;;;;;31.65;11.57;;;14.40;58.30;;;;;;5019619;28;20116;-62
2023/04/01 08:44:17;;;;;;;58.65;22.67;;;14.40;58.70;;;;;;5017738;28;20156;-62
2023/04/01 08:47:28;;;;;;;45.00;12.30;;;14.30;59.30;;;;;;5036350;28;20104;-63
2023/04/01 08:50:02;;;;;;;53.20;20.15;;;14.30;58.90;;;;;;5040361;28;20081;-62
2023/04/01 08:52:42;;;;;;;38.67;10.57;;;14.30;58.70;;;;;;5054031;28;20088;-63
2023/04/01 08:55:24;;;;;;;34.88;10.10;;;14.30;58.20;;;;;;5054350;28;20130;-62
2023/04/01 08:57:57;;;;;;;43.20;9.73;;;14.30;58.90;;;;;;5048702;28;20109;-63
2023/04/01 09:00:40;;;;;;;34.38;9.48;;;14.20;59.50;;;;;;5048650;28;20549;-63
2023/04/01 09:03:28;;;;;;;33.42;8.30;;;14.20;59.10;;;;;;5055686;28;20179;-63
2023/04/01 09:06:24;;;;;;;37.08;8.20;;;14.20;59.40;;;;;;5049988;28;20073;-62
2023/04/01 09:09:30;;;;;;;16.35;5.47;;;14.10;58.50;;;;;;5052148;28;20101;-62
2023/04/01 09:12:23;;;;;;;16.23;5.35;;;14.10;57.00;;;;;;5052235;28;20493;-64
2023/04/01 09:14:54;;;;;;;20.42;5.00;;;14.20;55.90;;;;;;5044977;28;20085;-62
2023/04/01 09:17:35;;;;;;;12.43;4.18;;;14.10;56.50;;;;;;5051218;28;20090;-64
2023/04/01 09:20:17;;;;;;;11.65;3.85;;;14.10;56.10;;;;;;5052332;28;20073;-64
2023/04/01 09:22:49;;;;;;;16.70;3.90;;;14.10;55.40;;;;;;5051780;28;20078;-64
2023/04/01 09:25:19;;;;;;;16.45;3.47;;;14.20;54.90;;;;;;5052390;28;20069;-62
2023/04/01 09:27:49;;;;;;;12.80;3.25;;;14.20;54.70;;;;;;5052650;28;20074;-62
2023/04/01 09:31:02;;;;;;;8.25;3.00;;;14.20;54.50;;;;;;5055125;28;20152;-63
2023/04/01 09:33:53;;;;;;;8.82;2.85;;;14.20;54.60;;;;;;5050337;28;20084;-62
2023/04/01 09:36:29;;;;;;;15.63;2.67;;;14.10;54.60;;;;;;5051250;28;20100;-63
2023/04/01 09:39:12;;;;;;;11.02;3.50;;;14.20;54.60;;;;;;5053641;28;20077;-62
2023/04/01 09:42:15;;;;;;;10.43;3.45;;;14.10;54.70;;;;;;5051956;28;20066;-64
2023/04/01 09:45:05;;;;;;;7.13;2.83;;;14.10;54.80;;;;;;5053382;28;20073;-64
2023/04/01 09:48:09;;;;;;;14.13;2.83;;;14.10;55.00;;;;;;5054857;28;20081;-62
2023/04/01 09:50:40;;;;;;;13.43;2.92;;;14.10;54.90;;;;;;5041030;28;20241;-64
2023/04/01 09:53:29;;;;;;;10.30;2.67;;;14.10;54.90;;;;;;5051053;28;20078;-63
2023/04/01 09:56:30;;;;;;;9.65;2.78;;;14.10;55.00;;;;;;5050155;28;20604;-64
2023/04/01 09:59:09;;;;;;;11.20;2.42;;;14.00;55.20;;;;;;5052426;28;20571;-62
2023/04/01 10:01:57;;;;;;;7.50;2.15;;;14.10;54.70;;;;;;5050394;28;20092;-64
2023/04/01 10:05:05;;;;;;;4.15;1.67;;;14.00;54.90;;;;;;5049155;28;20077;-62
2023/04/01 10:07:49;;;;;;;12.55;1.90;;;14.10;54.90;;;;;;5027119;28;20558;-63
2023/04/01 10:10:34;;;;;;;8.05;1.50;;;14.10;54.70;;;;;;5029767;28;20585;-67
2023/04/01 10:13:12;;;;;;;11.48;1.65;;;13.90;54.70;;;;;;5031585;28;20085;-62
2023/04/01 10:15:57;;;;;;;11.65;1.92;;;14.00;55.20;;;;;;5030384;28;20143;-63
2023/04/01 10:18:41;;;;;;;13.30;2.13;;;13.90;56.40;;;;;;5027597;28;20078;-63
2023/04/01 10:21:40;;;;;;;7.50;1.85;;;13.80;56.40;;;;;;5032410;28;20082;-62
2023/04/01 10:24:30;;;;;;;6.22;1.98;;;13.80;56.00;;;;;;5015863;28;20096;-62
2023/04/01 10:27:29;;;;;;;7.93;1.73;;;13.70;56.60;;;;;;5033437;28;20166;-62
2023/04/01 10:30:29;;;;;;;8.48;2.10;;;13.70;56.60;;;;;;4976565;28;20082;-61
2023/04/01 10:33:15;;;;;;;6.65;2.38;;;13.60;57.50;;;;;;5029658;28;20500;-65
2023/04/01 10:36:18;;;;;;;8.63;2.10;;;13.60;57.90;;;;;;5032465;28;20090;-63
2023/04/01 10:38:54;;;;;;;8.35;2.30;;;13.50;57.50;;;;;;5049809;28;20093;-63
2023/04/01 10:41:59;;;;;;;3.57;1.73;;;13.40;59.30;;;;;;5053412;28;20523;-63
2023/04/01 10:44:49;;;;;;;7.50;2.10;;;13.50;58.50;;;;;;5036138;28;20550;-62
2023/04/01 10:47:34;;;;;;;7.15;2.00;;;13.50;57.90;;;;;;5050687;28;20074;-63
2023/04/01 10:50:37;;;;;;;8.57;2.53;;;13.50;57.50;;;;;;5061425;28;20073;-63
2023/04/01 10:53:24;;;;;;;10.75;1.88;;;13.50;57.30;;;;;;5054890;28;20073;-64
2023/04/01 10:56:27;;;;;;;7.35;1.77;;;13.50;57.10;;;;;;5055080;28;20207;-63
2023/04/01 10:59:12;;;;;;;6.45;1.10;;;13.40;56.90;;;;;;5050203;28;20081;-65
2023/04/01 11:01:58;;;;;;;4.57;1.23;;;13.30;56.70;;;;;;5059135;28;20155;-62
2023/04/01 11:05:01;;;;;;;7.05;1.33;;;13.30;57.50;;;;;;5053635;28;20065;-64
2023/04/01 11:07:50;;;;;;;5.55;1.10;;;13.20;57.40;;;;;;5057132;28;20573;-64
2023/04/01 11:10:45;;;;;;;5.05;1.70;;;13.20;57.90;;;;;;5054897;28;20526;-64
2023/04/01 11:13:30;;;;;;;5.68;1.23;;;13.10;58.30;;;;;;5051954;28;20449;-64
2023/04/01 11:16:15;;;;;;;6.97;1.60;;;13.10;58.80;;;;;;5049321;28;20573;-64
2023/04/01 11:19:19;;;;;;;5.47;1.40;;;13.00;58.60;;;;;;5055965;28;20145;-64
2023/04/01 11:21:57;;;;;;;5.22;1.33;;;13.00;58.90;;;;;;5058359;28;20482;-65
2023/04/01 11:24:42;;;;;;;12.50;1.30;;;13.00;58.40;;;;;;5054375;28;20620;-60
2023/04/01 11:27:11;;;;;;;10.88;1.70;;;13.00;58.50;;;;;;5055951;28;20068;-62
2023/04/01 11:30:17;;;;;;;6.93;1.30;;;12.80;58.50;;;;;;5054860;28;20089;-63
2023/04/01 11:33:05;;;;;;;8.45;1.40;;;12.80;58.80;;;;;;5058627;28;20073;-64
2023/04/01 11:35:48;;;;;;;9.82;1.55;;;12.90;59.10;;;;;;5054582;28;20074;-63
2023/04/01 11:38:26;;;;;;;6.15;1.15;;;12.90;59.00;;;;;;5053521;28;20178;-63
2023/04/01 11:41:08;;;;;;;10.52;1.30;;;12.90;59.20;;;;;;5057186;28;20077;-63
2023/04/01 11:43:40;;;;;;;9.77;1.52;;;12.80;59.40;;;;;;5052874;28;20066;-64
2023/04/01 11:46:19;;;;;;;4.53;1.30;;;12.60;59.10;;;;;;5057489;28;20078;-63
2023/04/01 11:49:03;;;;;;;3.17;1.30;;;12.70;59.20;;;;;;5056778;28;20450;-63
2023/04/01 11:51:48;;;;;;;10.38;2.30;;;12.70;59.20;;;;;;5056850;28;20105;-63
2023/04/01 11:54:39;;;;;;;12.05;2.20;;;12.70;59.30;;;;;;5048424;28;20183;-63
2023/04/01 11:57:27;;;;;;;10.10;2.65;;;12.70;58.80;;;;;;5055294;28;20109;-62
2023/04/01 12:00:35;;;;;;;10.73;3.00;;;12.70;58.90;;;;;;5055690;28;20152;-64
2023/04/01 12:03:10;;;;;;;9.10;3.10;;;12.80;58.50;;;;;;5052945;28;20073;-63
2023/04/01 12:05:42;;;;;;;11.93;3.42;;;12.70;58.80;;;;;;5055109;28;20113;-62
2023/04/01 12:08:39;;;;;;;12.80;3.20;;;12.80;59.40;;;;;;5051114;28;20089;-64
2023/04/01 12:11:30;;;;;;;9.88;3.13;;;12.70;59.60;;;;;;5041551;28;20108;-62
2023/04/01 12:14:20;;;;;;;9.70;2.75;;;12.70;59.00;;;;;;5055778;28;20155;-62
2023/04/01 12:16:46;;;;;;;14.65;2.80;;;12.50;60.30;;;;;;5057667;28;20110;-64
2023/04/01 12:19:31;;;;;;;;;;;12.50;59.80;;;;;;5057102;28;20065;-64
2023/04/01 12:22:21;;;;;;;7.75;2.33;;;12.70;59.30;;;;;;5058608;28;20023;-61
2023/04/01 12:25:00;;;;;;;5.97;2.08;;;12.60;58.70;;;;;;5057988;28;20527;-63
2023/04/01 12:27:41;;;;;;;7.30;1.75;;;12.60;58.90;;;;;;5052292;28;20101;-61
2023/04/01 12:30:23;;;;;;;5.03;1.80;;;12.50;58.70;;;;;;5057487;28;20568;-63
2023/04/01 12:33:05;;;;;;;9.88;2.20;;;12.60;58.30;;;;;;5056312;28;20077;-63
2023/04/01 12:35:54;;;;;;;9.40;2.45;;;12.50;58.50;;;;;;5054874;28;20077;-65
2023/04/01 12:38:42;;;;;;;5.63;1.80;;;12.40;59.20;;;;;;5053243;28;20483;-63
2023/04/01 12:41:30;;;;;;;8.48;2.00;;;12.40;59.80;;;;;;5052535;28;20508;-63
2023/04/01 12:44:35;;;;;;;7.45;1.45;;;12.60;59.20;;;;;;5053006;28;20144;-61
2023/04/01 12:47:18;;;;;;;9.60;1.52;;;12.60;58.70;;;;;;5055581;28;20096;-61
2023/04/01 12:49:56;;;;;;;5.05;1.30;;;12.50;57.90;;;;;;5051895;28;20069;-63
2023/04/01 12:52:31;;;;;;;6.85;1.20;;;12.50;57.50;;;;;;5049028;28;20512;-64
2023/04/01 12:55:38;;;;;;;4.68;1.15;;;12.60;57.30;;;;;;5055279;28;20091;-63
2023/04/01 12:58:20;;;;;;;6.40;1.13;;;12.60;57.60;;;;;;5056452;28;20565;-64
2023/04/01 13:01:17;;;;;;;5.47;1.30;;;12.50;57.20;;;;;;5054927;28;20084;-63
2023/04/01 13:04:02;;;;;;;4.47;1.20;;;12.60;57.90;;;;;;5056144;28;20180;-64
2023/04/01 13:06:44;;;;;;;5.40;1.23;;;12.60;57.50;;;;;;5050125;28;20069;-63
2023/04/01 13:09:38;;;;;;;9.48;1.20;;;12.60;57.70;;;;;;5055650;28;20147;-61
2023/04/01 13:12:32;;;;;;;10.55;1.63;;;12.60;57.80;;;;;;5054895;28;20088;-64
2023/04/01 13:15:23;;;;;;;5.30;1.30;;;12.60;58.20;;;;;;5054088;28;20081;-62
2023/04/01 13:18:04;;;;;;;7.00;1.25;;;12.50;58.40;;;;;;5055660;28;20109;-64
2023/04/01 13:20:37;;;;;;;6.22;1.10;;;12.50;58.30;;;;;;5053813;28;20066;-65
2023/04/01 13:23:24;;;;;;;2.17;1.10;;;12.40;58.20;;;;;;5053428;28;21696;-63
2023/04/01 13:26:09;;;;;;;6.07;1.30;;;12.40;58.50;;;;;;5051863;28;20150;-63
2023/04/01 13:28:57;;;;;;;4.90;1.10;;;12.40;58.10;;;;;;5053367;28;20080;-61
2023/04/01 13:32:15;;;;;;;9.88;5.72;;;12.40;58.40;;;;;;5051746;28;20097;-64
2023/04/01 13:35:14;;;;;;;25.08;15.00;;;12.40;58.50;;;;;;5027264;28;20113;-64
2023/04/01 13:37:58;;;;;;;29.67;22.70;;;12.40;58.80;;;;;;5030191;28;20096;-62
2023/04/01 13:40:31;;;;;;;43.80;28.80;;;12.30;58.90;;;;;;5028705;28;20093;-63